Time;durP1;ratioP1;P1;durP2;ratioP2;P2;SDS_P1;SDS_P2;PMS_P1;PMS_P2;Temp;Humidity;BMP_temperature;BMP_pressure;BME280_temperature;BME280_humidity;BME280_pressure;Samples;Min_cycle;Max_cycle;Signal;HPM_P1;HPM_P2
2021/03/29 00:02:31;;;;;;;0.55;0.30;;;20.10;46.20;;;;;;7709316;23;20012;-64
2021/03/29 00:05:33;;;;;;;1.15;0.73;;;20.10;46.20;;;;;;7709680;23;20063;-64
2021/03/29 00:08:34;;;;;;;0.88;0.30;;;20.10;46.20;;;;;;7709557;23;20009;-64
2021/03/29 00:11:36;;;;;;;0.40;0.30;;;20.10;46.20;;;;;;7710768;23;20004;-65
2021/03/29 00:14:37;;;;;;;0.57;0.30;;;20.10;46.10;;;;;;7709687;23;20074;-64
2021/03/29 00:17:40;;;;;;;0.43;0.30;;;20.10;46.20;;;;;;7709380;23;20432;-65
2021/03/29 00:20:48;;;;;;;0.20;0.20;;;20.10;46.20;;;;;;7710286;23;20039;-65
2021/03/29 00:23:48;;;;;;;0.40;0.40;;;20.10;46.20;;;;;;7710263;23;20088;-64
2021/03/29 00:26:50;;;;;;;0.68;0.40;;;20.10;46.20;;;;;;7709978;23;20012;-65
2021/03/29 00:29:50;;;;;;;0.60;0.40;;;20.10;46.20;;;;;;7709656;23;20446;-64
2021/03/29 00:32:52;;;;;;;0.60;0.40;;;20.10;46.10;;;;;;7709938;23;20014;-65
2021/03/29 00:35:54;;;;;;;0.88;0.38;;;20.10;46.20;;;;;;7709918;23;20075;-65
2021/03/29 00:38:56;;;;;;;0.43;0.32;;;20.10;46.20;;;;;;7709129;23;20451;-64
2021/03/29 00:41:58;;;;;;;0.43;0.30;;;20.10;46.20;;;;;;7709406;23;20324;-65
2021/03/29 00:44:59;;;;;;;1.05;0.40;;;20.10;46.20;;;;;;7709216;23;20428;-65
2021/03/29 00:48:00;;;;;;;1.38;0.50;;;20.10;46.20;;;;;;7708895;23;20624;-65
2021/03/29 00:51:15;;;;;;;0.47;0.30;;;20.10;46.30;;;;;;7709222;23;20036;-65
2021/03/29 00:54:17;;;;;;;1.40;0.40;;;20.10;46.20;;;;;;7709311;23;20008;-65
2021/03/29 00:57:18;;;;;;;0.30;0.28;;;20.10;46.20;;;;;;7709102;23;20012;-65
2021/03/29 01:00:26;;;;;;;0.75;0.30;;;20.10;46.20;;;;;;7709561;23;20005;-65
2021/03/29 01:03:32;;;;;;;0.80;0.30;;;20.10;46.20;;;;;;7709721;23;20013;-65
2021/03/29 01:06:36;;;;;;;0.40;0.40;;;20.00;46.10;;;;;;7709028;23;20466;-64
2021/03/29 01:09:38;;;;;;;0.30;0.30;;;20.10;46.20;;;;;;7708888;23;20076;-64
2021/03/29 01:12:40;;;;;;;0.50;0.40;;;20.10;46.20;;;;;;7709395;23;20111;-64
2021/03/29 01:15:42;;;;;;;0.60;0.40;;;20.10;46.90;;;;;;7709032;23;20005;-65
2021/03/29 01:18:46;;;;;;;0.73;0.30;;;20.00;46.10;;;;;;7709130;23;20332;-65
2021/03/29 01:21:58;;;;;;;0.65;0.55;;;20.10;46.10;;;;;;7708821;23;20031;-64
2021/03/29 01:25:37;;;;;;;1.25;0.30;;;20.10;46.20;;;;;;7708857;23;20376;-65
2021/03/29 01:28:39;;;;;;;1.02;0.40;;;20.10;46.20;;;;;;7708850;23;20440;-65
2021/03/29 01:31:40;;;;;;;0.50;0.30;;;20.00;46.00;;;;;;7708897;23;20008;-64
2021/03/29 01:34:42;;;;;;;0.45;0.22;;;20.10;46.20;;;;;;7708652;23;20023;-65
2021/03/29 01:37:45;;;;;;;0.65;0.55;;;20.00;46.10;;;;;;7708920;23;20012;-65
2021/03/29 01:40:46;;;;;;;0.93;0.35;;;20.00;46.00;;;;;;7708579;23;20008;-65
2021/03/29 01:43:48;;;;;;;0.20;0.20;;;20.00;46.00;;;;;;7709013;23;20017;-64
2021/03/29 01:46:49;;;;;;;0.50;0.40;;;20.10;46.20;;;;;;7708727;23;20001;-65
2021/03/29 01:49:50;;;;;;;0.70;0.50;;;20.00;46.10;;;;;;7708494;23;20532;-65
2021/03/29 01:52:52;;;;;;;0.50;0.30;;;20.10;46.10;;;;;;7708684;23;20024;-65
2021/03/29 01:55:53;;;;;;;1.05;0.50;;;20.00;46.10;;;;;;7708745;23;20096;-64
2021/03/29 01:58:54;;;;;;;0.60;0.50;;;20.00;46.00;;;;;;7708219;23;20015;-65
2021/03/29 02:01:55;;;;;;;1.08;0.40;;;20.00;46.00;;;;;;7709113;23;20000;-65
2021/03/29 02:04:56;;;;;;;0.30;0.30;;;20.00;46.10;;;;;;7708856;23;20016;-65
2021/03/29 02:07:58;;;;;;;0.70;0.40;;;20.00;46.10;;;;;;7708640;23;20336;-64
2021/03/29 02:10:58;;;;;;;0.63;0.30;;;20.00;46.20;;;;;;7708800;23;20009;-64
2021/03/29 02:14:01;;;;;;;0.93;0.40;;;20.00;46.10;;;;;;7708776;23;20054;-65
2021/03/29 02:17:05;;;;;;;0.63;0.30;;;20.00;46.10;;;;;;7708621;23;20012;-64
2021/03/29 02:20:14;;;;;;;2.03;0.65;;;20.00;46.10;;;;;;7706958;23;20024;-65
2021/03/29 02:23:20;;;;;;;0.50;0.30;;;20.00;46.10;;;;;;7709234;23;20020;-65
2021/03/29 02:26:21;;;;;;;0.80;0.40;;;20.00;46.10;;;;;;7708616;23;20005;-65
2021/03/29 02:29:29;;;;;;;0.60;0.28;;;20.00;46.10;;;;;;7708215;23;20033;-66
2021/03/29 02:32:29;;;;;;;0.88;0.43;;;20.00;46.10;;;;;;7708620;23;20008;-65
2021/03/29 02:35:30;;;;;;;1.08;0.32;;;20.00;46.10;;;;;;7709866;23;20297;-65
2021/03/29 02:38:31;;;;;;;0.75;0.20;;;20.00;46.20;;;;;;7708432;23;20008;-65
2021/03/29 02:41:33;;;;;;;0.32;0.32;;;20.00;46.10;;;;;;7708455;23;20083;-64
2021/03/29 02:44:36;;;;;;;0.60;0.30;;;20.00;46.10;;;;;;7708740;23;20013;-64
2021/03/29 02:47:41;;;;;;;1.67;0.40;;;20.00;46.10;;;;;;7707506;23;20456;-65
2021/03/29 02:50:47;;;;;;;0.73;0.40;;;20.00;46.10;;;;;;7708885;23;20208;-65
2021/03/29 02:53:56;;;;;;;0.45;0.30;;;20.00;46.30;;;;;;7708682;23;20016;-65
2021/03/29 02:56:58;;;;;;;1.70;0.60;;;20.00;46.20;;;;;;7708720;23;20059;-65
2021/03/29 02:59:59;;;;;;;0.52;0.43;;;20.00;46.20;;;;;;7708392;23;20084;-65
2021/03/29 03:03:01;;;;;;;0.50;0.35;;;20.00;46.20;;;;;;7707872;23;20023;-65
2021/03/29 03:06:02;;;;;;;0.30;0.28;;;20.00;46.10;;;;;;7708928;23;20035;-65
2021/03/29 03:09:05;;;;;;;0.60;0.30;;;20.00;46.90;;;;;;7707972;23;20075;-65
2021/03/29 03:12:06;;;;;;;0.68;0.30;;;20.00;46.20;;;;;;7710795;23;20004;-64
2021/03/29 03:15:09;;;;;;;0.60;0.20;;;20.00;46.20;;;;;;7710790;23;20001;-64
2021/03/29 03:18:10;;;;;;;0.13;0.13;;;20.00;46.10;;;;;;7710109;23;20051;-65
2021/03/29 03:21:15;;;;;;;0.77;0.30;;;20.00;46.20;;;;;;7710284;23;20008;-65
2021/03/29 03:24:15;;;;;;;0.52;0.30;;;20.00;46.20;;;;;;7710114;23;20015;-65
2021/03/29 03:27:16;;;;;;;0.40;0.40;;;20.00;46.20;;;;;;7710816;23;20016;-66
2021/03/29 03:30:21;;;;;;;0.50;0.30;;;20.00;46.20;;;;;;7710160;23;20008;-65
2021/03/29 03:33:25;;;;;;;0.40;0.30;;;20.00;46.30;;;;;;7710507;23;20456;-64
2021/03/29 03:36:28;;;;;;;0.63;0.40;;;20.00;46.30;;;;;;7710327;23;20023;-65
2021/03/29 03:39:29;;;;;;;0.65;0.30;;;20.00;46.30;;;;;;7709952;23;20000;-64
2021/03/29 03:42:30;;;;;;;0.52;0.30;;;20.00;46.30;;;;;;7710144;23;20066;-64
2021/03/29 03:45:43;;;;;;;0.57;0.38;;;20.00;46.40;;;;;;7710396;23;20429;-65
2021/03/29 03:48:45;;;;;;;0.40;0.30;;;20.00;46.30;;;;;;7709301;23;20070;-64
2021/03/29 03:51:47;;;;;;;0.43;0.32;;;20.00;46.30;;;;;;7709733;23;20350;-64
2021/03/29 03:54:49;;;;;;;0.70;0.40;;;20.00;46.30;;;;;;7710249;23;20324;-65
2021/03/29 03:57:49;;;;;;;0.30;0.30;;;20.00;46.30;;;;;;7709809;23;20008;-65
2021/03/29 04:00:51;;;;;;;0.52;0.30;;;20.00;46.30;;;;;;7710955;23;20000;-64
2021/03/29 04:03:51;;;;;;;0.40;0.30;;;20.00;46.30;;;;;;7709759;23;20009;-65
2021/03/29 04:06:52;;;;;;;0.50;0.47;;;20.00;46.30;;;;;;7710153;23;20443;-65
2021/03/29 04:09:56;;;;;;;0.45;0.30;;;20.00;46.30;;;;;;7709077;23;20087;-65
2021/03/29 04:12:58;;;;;;;1.23;0.50;;;20.00;46.30;;;;;;7710287;23;20008;-64
2021/03/29 04:16:04;;;;;;;0.63;0.30;;;20.00;46.30;;;;;;7710703;23;19996;-65
2021/03/29 04:19:04;;;;;;;0.40;0.30;;;20.00;46.40;;;;;;7709547;23;20005;-64
2021/03/29 04:22:05;;;;;;;0.95;0.38;;;20.00;46.40;;;;;;7709875;23;20007;-65
2021/03/29 04:25:08;;;;;;;0.85;0.43;;;20.00;46.40;;;;;;7709238;23;20496;-64
2021/03/29 04:28:08;;;;;;;0.40;0.40;;;20.00;46.40;;;;;;7709594;23;20344;-64
2021/03/29 04:31:09;;;;;;;0.80;0.32;;;20.10;46.50;;;;;;7709516;23;20000;-65
2021/03/29 04:34:09;;;;;;;0.30;0.30;;;20.00;46.50;;;;;;7709576;23;20070;-65
2021/03/29 04:37:10;;;;;;;0.88;0.30;;;20.10;46.50;;;;;;7709730;23;20012;-65
2021/03/29 04:40:11;;;;;;;0.30;0.25;;;20.10;46.50;;;;;;7708972;23;20008;-65
2021/03/29 04:43:12;;;;;;;0.60;0.35;;;20.10;46.50;;;;;;7709689;23;20116;-65
2021/03/29 04:46:12;;;;;;;0.73;0.32;;;20.10;46.50;;;;;;7709308;23;20012;-64
2021/03/29 04:49:13;;;;;;;0.57;0.40;;;20.10;46.60;;;;;;7708435;23;20036;-65
2021/03/29 04:52:14;;;;;;;0.55;0.40;;;20.10;46.50;;;;;;7709178;23;20012;-65
2021/03/29 04:55:16;;;;;;;0.50;0.40;;;20.10;46.50;;;;;;7709450;23;20032;-64
2021/03/29 04:58:17;;;;;;;0.40;0.30;;;20.10;46.60;;;;;;7708567;23;20012;-65
2021/03/29 05:01:17;;;;;;;0.20;0.20;;;20.10;46.50;;;;;;7709225;23;20013;-65
2021/03/29 05:04:18;;;;;;;0.82;0.35;;;20.10;46.50;;;;;;7708860;23;20092;-65
2021/03/29 05:07:19;;;;;;;0.38;0.30;;;20.10;46.60;;;;;;7709417;23;20059;-65
2021/03/29 05:10:19;;;;;;;0.30;0.30;;;20.10;46.60;;;;;;7708838;23;20000;-65
2021/03/29 05:13:20;;;;;;;2.15;0.40;;;20.10;46.50;;;;;;7709447;23;20355;-65
2021/03/29 05:16:20;;;;;;;1.23;0.40;;;20.10;46.60;;;;;;7709013;23;20544;-65
2021/03/29 05:19:21;;;;;;;2.30;0.52;;;20.10;47.30;;;;;;7708573;23;20004;-65
2021/03/29 05:22:21;;;;;;;1.45;0.32;;;20.10;46.50;;;;;;7709266;23;20433;-65
2021/03/29 05:25:22;;;;;;;0.70;0.28;;;20.10;46.60;;;;;;7709173;23;20009;-65
2021/03/29 05:28:22;;;;;;;0.77;0.50;;;20.10;46.50;;;;;;7708801;23;20008;-65
2021/03/29 05:31:23;;;;;;;0.85;0.40;;;20.10;46.60;;;;;;7708713;23;20074;-65
2021/03/29 05:34:24;;;;;;;0.50;0.30;;;20.10;46.50;;;;;;7708908;23;20004;-65
2021/03/29 05:37:25;;;;;;;0.40;0.30;;;20.10;46.50;;;;;;7709323;23;20004;-65
2021/03/29 05:40:26;;;;;;;0.88;0.32;;;20.10;46.50;;;;;;7709073;23;20009;-65
2021/03/29 05:43:28;;;;;;;2.25;0.25;;;20.10;46.60;;;;;;7709304;23;20013;-65
2021/03/29 05:46:28;;;;;;;0.82;0.40;;;20.10;46.80;;;;;;7701554;23;20051;-65
2021/03/29 05:49:34;;;;;;;4.05;0.40;;;20.10;46.80;;;;;;7704662;23;20104;-64
2021/03/29 05:52:35;;;;;;;0.47;0.40;;;20.10;46.90;;;;;;7708987;23;20005;-65
2021/03/29 05:55:36;;;;;;;0.77;0.28;;;20.10;46.80;;;;;;7709055;23;20060;-65
2021/03/29 05:58:54;;;;;;;0.43;0.30;;;20.10;46.90;;;;;;7709008;23;20008;-64
2021/03/29 06:01:56;;;;;;;0.98;0.43;;;20.10;46.80;;;;;;7710411;23;20009;-64
2021/03/29 06:04:57;;;;;;;0.63;0.30;;;20.10;46.90;;;;;;7709977;23;20020;-65
2021/03/29 06:07:58;;;;;;;1.77;0.40;;;20.10;46.90;;;;;;7707460;23;20008;-64
2021/03/29 06:11:00;;;;;;;1.10;0.40;;;20.10;46.90;;;;;;7709554;23;20015;-65
2021/03/29 06:14:17;;;;;;;0.88;0.40;;;20.10;46.80;;;;;;7708818;23;20009;-65
2021/03/29 06:17:21;;;;;;;0.65;0.30;;;20.10;46.80;;;;;;7708751;23;20247;-65
2021/03/29 06:20:22;;;;;;;0.25;0.20;;;20.10;46.80;;;;;;7708136;23;20025;-65
2021/03/29 06:23:22;;;;;;;2.63;0.35;;;20.10;46.80;;;;;;7709291;23;20017;-65
2021/03/29 06:26:28;;;;;;;1.02;0.45;;;20.10;46.80;;;;;;7708765;23;20099;-65
2021/03/29 06:29:29;;;;;;;4.78;0.50;;;20.10;46.80;;;;;;7709520;23;20384;-65
2021/03/29 06:32:29;;;;;;;3.95;0.57;;;20.20;46.80;;;;;;7707954;23;20677;-65
2021/03/29 06:35:42;;;;;;;0.98;0.50;;;20.20;46.80;;;;;;7708985;23;20310;-65
2021/03/29 06:38:42;;;;;;;0.93;0.60;;;20.20;46.90;;;;;;7708855;23;20005;-65
2021/03/29 06:41:54;;;;;;;0.57;0.25;;;20.20;46.80;;;;;;7707232;23;20501;-65
2021/03/29 06:45:13;;;;;;;2.05;0.50;;;20.20;46.80;;;;;;7709604;23;20016;-65
2021/03/29 06:48:25;;;;;;;0.70;0.40;;;20.20;46.90;;;;;;7711471;23;20020;-65
2021/03/29 06:51:33;;;;;;;1.10;0.50;;;20.20;46.80;;;;;;7711073;23;20492;-65
2021/03/29 06:54:33;;;;;;;0.93;0.60;;;20.20;46.80;;;;;;7710865;23;20478;-65
2021/03/29 06:57:34;;;;;;;1.17;0.45;;;20.20;47.60;;;;;;7709424;23;20004;-64
2021/03/29 07:00:37;;;;;;;1.77;0.80;;;20.20;46.80;;;;;;7711779;23;20019;-65
2021/03/29 07:03:38;;;;;;;0.68;0.40;;;20.20;46.80;;;;;;7711842;23;20044;-65
2021/03/29 07:06:41;;;;;;;1.42;0.40;;;20.20;46.80;;;;;;7711357;23;20012;-65
2021/03/29 07:09:42;;;;;;;0.70;0.40;;;20.20;46.90;;;;;;7709321;23;20001;-64
2021/03/29 07:12:44;;;;;;;1.38;0.40;;;20.20;46.90;;;;;;7711466;23;20047;-64
2021/03/29 07:15:44;;;;;;;0.85;0.40;;;20.20;46.80;;;;;;7710875;23;20337;-65
2021/03/29 07:18:45;;;;;;;0.82;0.47;;;20.20;46.90;;;;;;7710682;23;20004;-65
2021/03/29 07:21:47;;;;;;;0.95;0.43;;;20.20;46.90;;;;;;7710445;23;20044;-65
2021/03/29 07:24:49;;;;;;;3.63;0.77;;;20.20;46.80;;;;;;7710857;23;20013;-65
2021/03/29 07:27:53;;;;;;;3.72;1.00;;;20.20;46.30;;;;;;7710838;23;20024;-65
2021/03/29 07:30:59;;;;;;;3.33;0.97;;;20.20;46.00;;;;;;7712385;23;20035;-65
2021/03/29 07:34:01;;;;;;;3.80;0.80;;;20.20;46.30;;;;;;7708329;23;20000;-65
2021/03/29 07:37:02;;;;;;;2.78;0.70;;;20.20;46.40;;;;;;7710700;23;20050;-65
2021/03/29 07:40:05;;;;;;;2.80;0.63;;;20.20;46.50;;;;;;7711178;23;20378;-65
2021/03/29 07:43:07;;;;;;;2.20;0.70;;;20.20;46.50;;;;;;7710624;23;20087;-65
2021/03/29 07:46:07;;;;;;;2.20;0.68;;;20.20;46.60;;;;;;7709486;23;20001;-65
2021/03/29 07:49:40;;;;;;;1.92;0.70;;;20.20;46.60;;;;;;7707358;23;20023;-65
2021/03/29 07:52:45;;;;;;;2.97;0.77;;;20.20;46.60;;;;;;7710966;23;20004;-65
2021/03/29 07:55:49;;;;;;;2.05;0.65;;;20.20;46.60;;;;;;7710140;23;20022;-65
2021/03/29 07:58:49;;;;;;;2.17;0.90;;;20.20;46.60;;;;;;7709504;23;20047;-65
2021/03/29 08:02:05;;;;;;;1.83;0.60;;;20.20;46.60;;;;;;7709795;23;20012;-63
2021/03/29 08:05:07;;;;;;;;;;;20.20;46.80;;;;;;7710945;23;20116;-64
2021/03/29 08:08:26;;;;;;;1.83;0.60;;;20.20;46.60;;;;;;7710379;23;19900;-65
2021/03/29 08:11:50;;;;;;;1.88;0.70;;;20.30;46.60;;;;;;7710264;23;20062;-65
2021/03/29 08:14:54;;;;;;;1.90;1.00;;;20.30;46.60;;;;;;7709781;23;20432;-65
2021/03/29 08:17:59;;;;;;;2.50;0.75;;;20.30;46.70;;;;;;7710314;23;20020;-64
2021/03/29 08:21:00;;;;;;;2.20;0.50;;;20.30;46.70;;;;;;7710833;23;20017;-64
2021/03/29 08:24:00;;;;;;;4.85;1.17;;;20.30;46.60;;;;;;7709515;23;20020;-65
2021/03/29 08:27:06;;;;;;;1.80;0.80;;;20.30;46.70;;;;;;7710012;23;20517;-65
2021/03/29 08:30:09;;;;;;;;;;;20.20;46.70;;;;;;7711311;23;20020;-65
2021/03/29 08:33:11;;;;;;;2.60;0.75;;;20.20;46.70;;;;;;7710857;23;19903;-65
2021/03/29 08:36:11;;;;;;;1.85;0.60;;;20.20;46.70;;;;;;7709420;23;20005;-65
2021/03/29 08:39:12;;;;;;;1.50;0.47;;;20.20;46.70;;;;;;7710093;23;20015;-65
2021/03/29 08:42:15;;;;;;;1.80;0.63;;;20.20;46.70;;;;;;7710240;23;20012;-65
2021/03/29 08:45:19;;;;;;;1.25;0.60;;;20.20;46.70;;;;;;7708092;23;20370;-66
2021/03/29 08:48:21;;;;;;;9.40;0.85;;;20.20;46.70;;;;;;7709529;23;20059;-65
2021/03/29 08:51:22;;;;;;;2.25;0.90;;;20.20;46.70;;;;;;7711379;23;20012;-65
2021/03/29 08:54:22;;;;;;;1.88;0.70;;;20.20;46.80;;;;;;7710218;23;20087;-64
2021/03/29 08:57:32;;;;;;;1.92;0.60;;;20.20;46.70;;;;;;7710015;23;20019;-65
2021/03/29 09:00:38;;;;;;;1.15;0.50;;;20.20;46.70;;;;;;7708990;23;20004;-65
2021/03/29 09:03:39;;;;;;;3.95;0.90;;;20.20;46.70;;;;;;7709829;23;20510;-65
2021/03/29 09:06:39;;;;;;;0.82;0.60;;;20.20;46.70;;;;;;7708792;23;20080;-65
2021/03/29 09:09:40;;;;;;;1.00;0.50;;;20.20;46.70;;;;;;7709742;23;20004;-65
2021/03/29 09:12:42;;;;;;;2.25;0.88;;;20.20;46.70;;;;;;7709111;23;20005;-65
2021/03/29 09:15:45;;;;;;;1.75;0.70;;;20.20;46.80;;;;;;7709394;23;20353;-65
2021/03/29 09:18:45;;;;;;;10.48;1.02;;;20.20;46.80;;;;;;7709536;23;20329;-65
2021/03/29 09:21:53;;;;;;;25.08;1.30;;;20.20;46.80;;;;;;7709415;23;20008;-63
2021/03/29 09:24:54;;;;;;;21.23;1.13;;;20.20;46.80;;;;;;7706860;23;20428;-64
2021/03/29 09:31:32;;;;;;;20.17;0.90;;;20.30;47.40;;;;;;7709010;23;20016;-63
2021/03/29 09:34:35;;;;;;;15.85;1.00;;;20.30;47.30;;;;;;7708323;23;20005;-64
2021/03/29 09:37:46;;;;;;;6.53;1.10;;;20.30;47.30;;;;;;7707740;23;20005;-64
2021/03/29 09:40:46;;;;;;;9.63;0.88;;;20.20;47.20;;;;;;7709219;23;20091;-64
2021/03/29 09:43:49;;;;;;;1.25;0.55;;;20.20;47.30;;;;;;7709532;23;20070;-64
2021/03/29 09:46:52;;;;;;;7.28;0.80;;;20.20;47.30;;;;;;7709474;23;20024;-64
2021/03/29 09:49:53;;;;;;;5.43;0.70;;;20.20;47.30;;;;;;7708475;23;20075;-63
2021/03/29 09:53:08;;;;;;;3.08;0.75;;;20.20;47.30;;;;;;7709505;23;20056;-63
2021/03/29 09:56:08;;;;;;;5.43;0.77;;;20.20;47.30;;;;;;7707145;23;20008;-64
2021/03/29 09:59:09;;;;;;;5.50;0.90;;;20.20;47.30;;;;;;7709057;23;20432;-63
2021/03/29 10:02:14;;;;;;;3.00;0.73;;;20.20;47.30;;;;;;7708908;23;20009;-64
2021/03/29 10:05:17;;;;;;;;;;;20.20;47.30;;;;;;7709502;23;20020;-64
2021/03/29 10:08:26;;;;;;;1.48;0.63;;;20.20;47.30;;;;;;7709436;23;19907;-64
2021/03/29 10:11:41;;;;;;;2.40;0.60;;;20.20;47.30;;;;;;7709817;23;20056;-64
2021/03/29 10:14:41;;;;;;;1.73;0.80;;;20.10;47.30;;;;;;7708410;23;20000;-64
2021/03/29 10:17:42;;;;;;;1.95;0.57;;;20.10;47.30;;;;;;7709197;23;20317;-64
2021/03/29 10:20:45;;;;;;;3.00;0.70;;;20.10;47.30;;;;;;7712129;23;20012;-64
2021/03/29 10:23:45;;;;;;;1.95;0.60;;;20.10;47.30;;;;;;7711914;23;20093;-63
2021/03/29 10:26:53;;;;;;;2.83;0.85;;;20.10;47.30;;;;;;7709582;23;20096;-63
2021/03/29 10:29:54;;;;;;;2.10;0.60;;;20.10;47.30;;;;;;7711858;23;20023;-64
2021/03/29 10:32:57;;;;;;;2.15;0.70;;;20.10;47.30;;;;;;7712152;23;20008;-64
2021/03/29 10:35:57;;;;;;;1.92;0.55;;;20.10;47.40;;;;;;7710984;23;20023;-64
2021/03/29 10:38:58;;;;;;;1.35;0.50;;;20.10;47.30;;;;;;7710690;23;20001;-64
2021/03/29 10:41:58;;;;;;;0.68;0.45;;;20.10;47.30;;;;;;7711051;23;20506;-64
2021/03/29 10:44:59;;;;;;;1.02;0.50;;;20.10;47.40;;;;;;7711082;23;20016;-64
2021/03/29 10:48:00;;;;;;;1.50;0.50;;;20.10;47.40;;;;;;7711019;23;20032;-64
2021/03/29 10:51:02;;;;;;;1.48;0.50;;;20.10;47.30;;;;;;7710695;23;20007;-64
2021/03/29 10:54:03;;;;;;;1.40;0.60;;;20.10;47.30;;;;;;7711799;23;20217;-64
2021/03/29 10:57:04;;;;;;;1.30;0.70;;;20.10;47.40;;;;;;7710388;23;20019;-64
2021/03/29 11:00:07;;;;;;;2.60;0.73;;;20.10;47.30;;;;;;7711998;23;20004;-64
2021/03/29 11:03:07;;;;;;;1.27;0.60;;;20.10;47.40;;;;;;7710180;23;20086;-64
2021/03/29 11:06:08;;;;;;;1.17;0.50;;;20.10;47.30;;;;;;7711379;23;20071;-64
2021/03/29 11:09:08;;;;;;;1.15;0.50;;;20.10;47.40;;;;;;7711228;23;20008;-64
2021/03/29 11:12:09;;;;;;;1.23;0.60;;;20.10;47.40;;;;;;7710756;23;20032;-64
2021/03/29 11:15:11;;;;;;;2.97;0.60;;;20.10;47.40;;;;;;7709920;23;20482;-64
2021/03/29 11:18:12;;;;;;;0.70;0.40;;;20.10;47.40;;;;;;7711468;23;20350;-64
2021/03/29 11:21:13;;;;;;;2.28;0.77;;;20.10;47.40;;;;;;7711756;23;20012;-64
2021/03/29 11:24:13;;;;;;;0.88;0.45;;;20.10;47.40;;;;;;7710505;23;20059;-64
2021/03/29 11:27:14;;;;;;;2.13;0.50;;;20.10;48.00;;;;;;7710336;23;20007;-64
2021/03/29 11:30:16;;;;;;;0.93;0.47;;;20.10;47.40;;;;;;7709948;23;20008;-64
2021/03/29 11:33:17;;;;;;;0.80;0.50;;;20.10;47.40;;;;;;7709255;23;20001;-64
2021/03/29 11:36:18;;;;;;;1.00;0.60;;;20.10;47.40;;;;;;7710394;23;20001;-63
2021/03/29 11:39:19;;;;;;;1.38;0.50;;;20.10;47.40;;;;;;7709897;23;20007;-64
2021/03/29 11:42:19;;;;;;;0.68;0.50;;;20.10;47.40;;;;;;7710084;23;20009;-64
2021/03/29 11:45:20;;;;;;;0.70;0.50;;;20.10;47.40;;;;;;7711091;23;20016;-63
2021/03/29 11:48:20;;;;;;;1.48;0.60;;;20.10;47.40;;;;;;7710045;23;20024;-64
2021/03/29 11:51:21;;;;;;;0.98;0.40;;;20.10;47.40;;;;;;7711682;23;20478;-64
2021/03/29 11:54:21;;;;;;;1.58;0.50;;;20.10;47.50;;;;;;7707145;23;20451;-64
2021/03/29 11:57:22;;;;;;;0.80;0.50;;;20.10;47.40;;;;;;7708752;23;20048;-64
2021/03/29 12:00:33;;;;;;;1.83;0.43;;;20.10;47.50;;;;;;7710360;23;20011;-63
2021/03/29 12:03:40;;;;;;;1.02;0.52;;;20.10;47.40;;;;;;7709239;23;20383;-64
2021/03/29 12:06:57;;;;;;;1.23;0.50;;;20.10;47.40;;;;;;7709401;23;20467;-63
2021/03/29 12:13:19;;;;;;;0.95;0.40;;;20.10;47.50;;;;;;7710017;23;20009;-64
2021/03/29 12:16:20;;;;;;;1.10;0.63;;;20.00;47.40;;;;;;7709726;23;20055;-64
2021/03/29 12:19:20;;;;;;;0.90;0.47;;;20.10;47.50;;;;;;7708558;23;20012;-64
2021/03/29 12:22:26;;;;;;;1.00;0.45;;;20.10;47.50;;;;;;7710942;23;20005;-64
2021/03/29 12:25:28;;;;;;;1.02;0.65;;;20.10;47.50;;;;;;7711602;23;20012;-64
2021/03/29 12:28:30;;;;;;;0.70;0.40;;;20.10;47.50;;;;;;7711183;23;20016;-64
2021/03/29 12:31:37;;;;;;;0.45;0.40;;;20.10;47.50;;;;;;7710912;23;20011;-63
2021/03/29 12:34:46;;;;;;;1.00;0.40;;;20.10;47.50;;;;;;7709405;23;20016;-64
2021/03/29 12:37:50;;;;;;;0.38;0.38;;;20.10;47.50;;;;;;7710962;23;20122;-64
2021/03/29 12:40:56;;;;;;;0.82;0.50;;;20.10;47.50;;;;;;7710085;23;20005;-64
2021/03/29 12:44:08;;;;;;;3.33;0.55;;;20.10;47.50;;;;;;7708330;23;20096;-64
2021/03/29 12:47:12;;;;;;;1.42;0.50;;;20.00;47.40;;;;;;7711549;23;20008;-64
2021/03/29 12:50:14;;;;;;;1.27;0.50;;;20.10;47.50;;;;;;7711252;23;20017;-64
2021/03/29 12:53:15;;;;;;;0.95;0.65;;;20.10;47.50;;;;;;7711416;23;20062;-64
2021/03/29 12:56:17;;;;;;;0.50;0.47;;;20.10;47.50;;;;;;7710663;23;20008;-64
2021/03/29 12:59:22;;;;;;;0.70;0.43;;;20.10;47.50;;;;;;7711405;23;20035;-64
2021/03/29 13:02:23;;;;;;;1.63;0.60;;;20.10;47.50;;;;;;7709073;23;20176;-63
2021/03/29 13:05:42;;;;;;;1.10;0.40;;;20.10;47.50;;;;;;7710834;23;20012;-64
2021/03/29 13:08:43;;;;;;;1.48;0.45;;;20.10;47.50;;;;;;7709792;23;20498;-64
2021/03/29 13:11:44;;;;;;;1.50;0.65;;;20.10;47.50;;;;;;7711645;23;20040;-64
2021/03/29 13:14:57;;;;;;;0.68;0.40;;;20.10;47.50;;;;;;7711393;23;20096;-64
2021/03/29 13:17:57;;;;;;;1.40;0.50;;;20.00;47.50;;;;;;7710363;23;20012;-64
2021/03/29 13:20:58;;;;;;;1.05;0.70;;;20.10;47.50;;;;;;7710328;23;20009;-64
2021/03/29 13:24:00;;;;;;;1.17;0.63;;;20.10;47.50;;;;;;7710514;23;20019;-63
2021/03/29 13:27:01;;;;;;;0.93;0.45;;;20.10;47.50;;;;;;7711150;23;20011;-64
2021/03/29 13:30:12;;;;;;;0.95;0.60;;;20.00;47.50;;;;;;7710998;23;20337;-64
2021/03/29 13:33:12;;;;;;;1.50;0.70;;;20.10;47.50;;;;;;7710699;23;20004;-64
2021/03/29 13:36:13;;;;;;;1.17;0.50;;;20.10;47.60;;;;;;7711215;23;20031;-64
2021/03/29 13:39:14;;;;;;;3.17;0.80;;;20.00;47.50;;;;;;7708990;23;20305;-63
2021/03/29 13:42:15;;;;;;;0.77;0.50;;;20.10;47.50;;;;;;7710854;23;20001;-64
2021/03/29 13:45:16;;;;;;;4.00;0.70;;;20.10;47.60;;;;;;7709967;23;20467;-64
2021/03/29 13:48:17;;;;;;;1.10;0.70;;;20.00;47.50;;;;;;7710666;23;20079;-64
2021/03/29 13:51:18;;;;;;;0.60;0.45;;;20.10;47.60;;;;;;7710408;23;20091;-64
2021/03/29 13:54:20;;;;;;;0.70;0.55;;;20.10;47.60;;;;;;7710752;23;20015;-63
2021/03/29 13:57:21;;;;;;;1.38;0.47;;;20.10;47.60;;;;;;7709483;23;20008;-64
2021/03/29 14:00:24;;;;;;;2.10;0.60;;;20.10;47.60;;;;;;7710410;23;20051;-64
2021/03/29 14:03:24;;;;;;;3.08;0.70;;;20.10;47.60;;;;;;7711061;23;20000;-64
2021/03/29 14:06:29;;;;;;;1.63;0.60;;;20.00;47.50;;;;;;7710369;23;20030;-63
2021/03/29 14:09:29;;;;;;;1.20;0.50;;;20.00;47.50;;;;;;7709994;23;20019;-64
2021/03/29 14:12:30;;;;;;;1.23;0.60;;;20.00;47.50;;;;;;7710573;23;20008;-64
2021/03/29 14:15:31;;;;;;;1.52;0.47;;;20.00;47.60;;;;;;7710116;23;20031;-64
2021/03/29 14:18:32;;;;;;;1.25;0.80;;;20.00;47.60;;;;;;7710517;23;20005;-64
2021/03/29 14:21:33;;;;;;;1.90;0.77;;;20.00;47.50;;;;;;7710076;23;20309;-63
2021/03/29 14:24:34;;;;;;;0.55;0.40;;;20.10;47.60;;;;;;7710318;23;20016;-64
2021/03/29 14:27:34;;;;;;;4.22;0.60;;;20.10;47.60;;;;;;7709396;23;20059;-64
2021/03/29 14:30:35;;;;;;;3.10;0.68;;;20.10;47.50;;;;;;7710425;23;20084;-67
2021/03/29 14:33:39;;;;;;;1.58;0.60;;;20.10;47.50;;;;;;7709894;23;20474;-64
2021/03/29 14:36:51;;;;;;;0.73;0.40;;;20.10;47.50;;;;;;7710129;23;20068;-64
2021/03/29 14:40:04;;;;;;;2.40;0.60;;;20.10;48.10;;;;;;7710410;23;20005;-64
2021/03/29 14:43:16;;;;;;;0.60;0.40;;;20.10;47.50;;;;;;7710593;23;20598;-64
2021/03/29 14:46:16;;;;;;;1.65;0.60;;;20.10;47.50;;;;;;7709329;23;20012;-64
2021/03/29 14:49:17;;;;;;;0.80;0.50;;;20.10;47.50;;;;;;7709965;23;20314;-64
2021/03/29 14:52:17;;;;;;;1.25;0.60;;;20.10;47.50;;;;;;7709117;23;20013;-64
2021/03/29 14:55:21;;;;;;;1.33;0.45;;;20.10;47.50;;;;;;7710131;23;20032;-64
2021/03/29 14:58:22;;;;;;;2.03;0.50;;;20.10;47.50;;;;;;7709024;23;20023;-63
2021/03/29 15:01:24;;;;;;;3.35;1.08;;;20.10;47.50;;;;;;7709966;23;20016;-63
2021/03/29 15:04:28;;;;;;;2.85;0.50;;;20.10;47.50;;;;;;7711153;23;20017;-64
2021/03/29 15:07:28;;;;;;;4.72;0.50;;;20.20;47.60;;;;;;7712021;23;20072;-64
2021/03/29 15:10:29;;;;;;;1.45;0.57;;;20.20;47.60;;;;;;7711343;23;20483;-64
2021/03/29 15:13:29;;;;;;;1.05;0.60;;;20.20;47.70;;;;;;7712653;23;20001;-64
2021/03/29 15:16:30;;;;;;;3.33;0.65;;;20.20;47.70;;;;;;7712544;23;20009;-64
2021/03/29 15:19:31;;;;;;;1.75;0.70;;;20.20;47.70;;;;;;7712288;23;20015;-64
2021/03/29 15:22:32;;;;;;;1.45;0.82;;;20.20;47.70;;;;;;7711161;23;20004;-64
2021/03/29 15:25:32;;;;;;;1.08;0.60;;;20.20;47.70;;;;;;7712259;23;20019;-64
2021/03/29 15:28:34;;;;;;;1.38;0.60;;;20.20;47.70;;;;;;7712329;23;20014;-64
2021/03/29 15:31:35;;;;;;;1.63;0.65;;;20.20;47.40;;;;;;7712002;23;20088;-64
2021/03/29 15:34:35;;;;;;;2.25;0.73;;;20.20;47.40;;;;;;7711484;23;20339;-64
2021/03/29 15:37:37;;;;;;;2.72;1.20;;;20.20;47.30;;;;;;7711265;23;20019;-64
2021/03/29 15:40:38;;;;;;;1.40;0.65;;;20.20;47.20;;;;;;7712429;23;20009;-64
2021/03/29 15:43:39;;;;;;;1.70;0.70;;;20.20;47.10;;;;;;7712158;23;20328;-64
2021/03/29 15:46:44;;;;;;;2.20;0.95;;;20.20;47.00;;;;;;7710589;23;20004;-64
2021/03/29 15:49:46;;;;;;;6.95;1.15;;;20.20;46.90;;;;;;7711629;23;20016;-64
2021/03/29 15:52:47;;;;;;;4.22;1.10;;;20.20;46.90;;;;;;7711594;23;20513;-64
2021/03/29 15:55:47;;;;;;;8.38;1.27;;;20.20;46.90;;;;;;7710194;23;20101;-64
2021/03/29 15:58:48;;;;;;;7.82;1.23;;;20.20;46.80;;;;;;7711269;23;20043;-63
2021/03/29 16:01:54;;;;;;;6.55;1.30;;;20.20;46.80;;;;;;7707675;23;20028;-64